RO-0005 weather

Aerodrom Sălicea
Cluj, Romania

Public forecast

Using degrees Celsius for public forecast. Weather courtesy of forecast.io.

METAR (pilot weather report)

Closest report is Cluj-Napoca International Airport, 9.6 nm (17.7 km) NE. Retrieved 2019/08/20 15:30 UTC (9 minutes ago):

LRCL 201530Z 09003KT 9999 FEW040 31/13 Q1020

TAF (pilot weather forecast)

Closest forecast is Câmpia Turzii Air Base, 19.0 nm (35.2 km) SE. Retrieved 2019/08/20 12:06 UTC (4 hours ago):

TAF LRCT 201100Z 2012/2112 18005KT 9999 SKC